sensor_id;sensor_type;location;lat;lon;timestamp;P1;durP1;ratioP1;P2;durP2;ratioP2
41817;SDS011;27493;51.730;5.294;2022-07-01T00:01:32;51.80;;;32.07;;
41817;SDS011;27493;51.730;5.294;2022-07-01T00:03:57;50.90;;;32.30;;
41817;SDS011;27493;51.730;5.294;2022-07-01T00:06:24;48.77;;;31.53;;
41817;SDS011;27493;51.730;5.294;2022-07-01T00:08:49;52.67;;;31.73;;
41817;SDS011;27493;51.730;5.294;2022-07-01T00:11:14;45.40;;;30.20;;
41817;SDS011;27493;51.730;5.294;2022-07-01T00:13:39;46.73;;;29.87;;
41817;SDS011;27493;51.730;5.294;2022-07-01T00:16:05;39.60;;;28.40;;
41817;SDS011;27493;51.730;5.294;2022-07-01T00:18:30;38.90;;;27.13;;
41817;SDS011;27493;51.730;5.294;2022-07-01T00:20:55;40.87;;;27.43;;
41817;SDS011;27493;51.730;5.294;2022-07-01T00:23:26;40.87;;;28.77;;
41817;SDS011;27493;51.730;5.294;2022-07-01T00:25:51;40.40;;;26.23;;
41817;SDS011;27493;51.730;5.294;2022-07-01T00:28:16;41.03;;;28.57;;
41817;SDS011;27493;51.730;5.294;2022-07-01T00:30:41;47.50;;;27.00;;
41817;SDS011;27493;51.730;5.294;2022-07-01T00:33:07;41.27;;;27.40;;
41817;SDS011;27493;51.730;5.294;2022-07-01T00:35:34;42.67;;;28.23;;
41817;SDS011;27493;51.730;5.294;2022-07-01T00:37:59;38.43;;;27.13;;
41817;SDS011;27493;51.730;5.294;2022-07-01T00:40:25;41.20;;;27.30;;
41817;SDS011;27493;51.730;5.294;2022-07-01T00:42:53;38.67;;;25.77;;
41817;SDS011;27493;51.730;5.294;2022-07-01T00:45:18;37.00;;;25.57;;
41817;SDS011;27493;51.730;5.294;2022-07-01T00:47:44;36.97;;;25.87;;
41817;SDS011;27493;51.730;5.294;2022-07-01T00:50:10;39.23;;;25.73;;
41817;SDS011;27493;51.730;5.294;2022-07-01T00:52:36;35.27;;;24.80;;
41817;SDS011;27493;51.730;5.294;2022-07-01T00:55:03;35.03;;;24.03;;
41817;SDS011;27493;51.730;5.294;2022-07-01T00:57:32;34.97;;;24.70;;
41817;SDS011;27493;51.730;5.294;2022-07-01T00:59:58;35.63;;;24.70;;
41817;SDS011;27493;51.730;5.294;2022-07-01T01:02:23;35.40;;;25.13;;
41817;SDS011;27493;51.730;5.294;2022-07-01T01:04:49;38.67;;;25.53;;
41817;SDS011;27493;51.730;5.294;2022-07-01T01:07:14;36.10;;;24.80;;
41817;SDS011;27493;51.730;5.294;2022-07-01T01:09:39;34.97;;;23.67;;
41817;SDS011;27493;51.730;5.294;2022-07-01T01:12:05;35.43;;;25.23;;
41817;SDS011;27493;51.730;5.294;2022-07-01T01:14:42;34.97;;;24.87;;
41817;SDS011;27493;51.730;5.294;2022-07-01T01:17:08;35.57;;;24.43;;
41817;SDS011;27493;51.730;5.294;2022-07-01T01:19:33;36.63;;;26.50;;
41817;SDS011;27493;51.730;5.294;2022-07-01T01:21:59;34.33;;;25.43;;
41817;SDS011;27493;51.730;5.294;2022-07-01T01:24:24;39.13;;;26.37;;
41817;SDS011;27493;51.730;5.294;2022-07-01T01:26:49;37.10;;;25.93;;
41817;SDS011;27493;51.730;5.294;2022-07-01T01:29:14;40.27;;;27.60;;
41817;SDS011;27493;51.730;5.294;2022-07-01T01:31:39;36.87;;;25.23;;
41817;SDS011;27493;51.730;5.294;2022-07-01T01:34:05;39.97;;;26.23;;
41817;SDS011;27493;51.730;5.294;2022-07-01T01:36:30;41.10;;;26.37;;
41817;SDS011;27493;51.730;5.294;2022-07-01T01:38:55;39.93;;;27.07;;
41817;SDS011;27493;51.730;5.294;2022-07-01T01:41:27;43.10;;;28.30;;
41817;SDS011;27493;51.730;5.294;2022-07-01T01:43:52;41.47;;;27.67;;
41817;SDS011;27493;51.730;5.294;2022-07-01T01:46:17;43.53;;;29.23;;
41817;SDS011;27493;51.730;5.294;2022-07-01T01:48:43;45.10;;;28.20;;
41817;SDS011;27493;51.730;5.294;2022-07-01T01:51:08;42.23;;;28.77;;
41817;SDS011;27493;51.730;5.294;2022-07-01T01:53:33;38.93;;;29.13;;
41817;SDS011;27493;51.730;5.294;2022-07-01T01:55:58;46.43;;;29.33;;
41817;SDS011;27493;51.730;5.294;2022-07-01T01:58:24;41.67;;;27.87;;
41817;SDS011;27493;51.730;5.294;2022-07-01T02:00:49;42.30;;;29.40;;
41817;SDS011;27493;51.730;5.294;2022-07-01T02:03:14;46.47;;;29.07;;
41817;SDS011;27493;51.730;5.294;2022-07-01T02:05:39;43.17;;;29.00;;
41817;SDS011;27493;51.730;5.294;2022-07-01T02:08:05;44.90;;;29.20;;
41817;SDS011;27493;51.730;5.294;2022-07-01T02:10:30;45.93;;;30.80;;
41817;SDS011;27493;51.730;5.294;2022-07-01T02:12:55;43.53;;;30.07;;
41817;SDS011;27493;51.730;5.294;2022-07-01T02:15:21;40.20;;;28.63;;
41817;SDS011;27493;51.730;5.294;2022-07-01T02:17:46;49.50;;;31.87;;
41817;SDS011;27493;51.730;5.294;2022-07-01T02:20:12;47.03;;;30.80;;
41817;SDS011;27493;51.730;5.294;2022-07-01T02:22:39;47.00;;;31.37;;
41817;SDS011;27493;51.730;5.294;2022-07-01T02:25:05;51.07;;;30.87;;
41817;SDS011;27493;51.730;5.294;2022-07-01T02:27:30;44.13;;;30.43;;
41817;SDS011;27493;51.730;5.294;2022-07-01T02:29:56;45.73;;;31.80;;
41817;SDS011;27493;51.730;5.294;2022-07-01T02:32:23;46.90;;;31.47;;
41817;SDS011;27493;51.730;5.294;2022-07-01T02:34:48;45.37;;;30.77;;
41817;SDS011;27493;51.730;5.294;2022-07-01T02:37:13;51.03;;;33.03;;
41817;SDS011;27493;51.730;5.294;2022-07-01T02:39:39;51.33;;;32.87;;
41817;SDS011;27493;51.730;5.294;2022-07-01T02:42:04;51.77;;;31.70;;
41817;SDS011;27493;51.730;5.294;2022-07-01T02:44:48;48.53;;;32.43;;
41817;SDS011;27493;51.730;5.294;2022-07-01T02:47:13;53.83;;;33.13;;
41817;SDS011;27493;51.730;5.294;2022-07-01T02:49:38;53.30;;;33.23;;
41817;SDS011;27493;51.730;5.294;2022-07-01T02:52:04;52.83;;;33.60;;
41817;SDS011;27493;51.730;5.294;2022-07-01T02:54:29;55.13;;;33.23;;
41817;SDS011;27493;51.730;5.294;2022-07-01T02:56:58;58.03;;;35.17;;
41817;SDS011;27493;51.730;5.294;2022-07-01T02:59:23;56.77;;;34.47;;
41817;SDS011;27493;51.730;5.294;2022-07-01T03:01:48;55.80;;;34.80;;
41817;SDS011;27493;51.730;5.294;2022-07-01T03:04:14;56.80;;;35.20;;
41817;SDS011;27493;51.730;5.294;2022-07-01T03:06:39;60.47;;;36.60;;
41817;SDS011;27493;51.730;5.294;2022-07-01T03:09:06;58.03;;;35.27;;
41817;SDS011;27493;51.730;5.294;2022-07-01T03:11:31;60.87;;;37.17;;
41817;SDS011;27493;51.730;5.294;2022-07-01T03:13:56;63.13;;;37.70;;
41817;SDS011;27493;51.730;5.294;2022-07-01T03:16:21;63.47;;;37.73;;
41817;SDS011;27493;51.730;5.294;2022-07-01T03:18:47;64.73;;;38.00;;
41817;SDS011;27493;51.730;5.294;2022-07-01T03:21:14;66.57;;;36.87;;
41817;SDS011;27493;51.730;5.294;2022-07-01T03:23:40;70.13;;;39.10;;
41817;SDS011;27493;51.730;5.294;2022-07-01T03:26:05;65.07;;;39.43;;
41817;SDS011;27493;51.730;5.294;2022-07-01T03:28:30;59.30;;;36.67;;
41817;SDS011;27493;51.730;5.294;2022-07-01T03:30:56;59.73;;;35.97;;
41817;SDS011;27493;51.730;5.294;2022-07-01T03:33:22;66.57;;;37.97;;
41817;SDS011;27493;51.730;5.294;2022-07-01T03:35:47;64.30;;;36.83;;
41817;SDS011;27493;51.730;5.294;2022-07-01T03:38:15;62.33;;;37.53;;
41817;SDS011;27493;51.730;5.294;2022-07-01T03:40:41;67.43;;;36.63;;
41817;SDS011;27493;51.730;5.294;2022-07-01T03:43:07;65.73;;;38.17;;
41817;SDS011;27493;51.730;5.294;2022-07-01T03:45:32;61.47;;;36.57;;
41817;SDS011;27493;51.730;5.294;2022-07-01T03:47:57;58.20;;;35.83;;
41817;SDS011;27493;51.730;5.294;2022-07-01T03:50:24;62.90;;;36.83;;
41817;SDS011;27493;51.730;5.294;2022-07-01T03:52:49;60.53;;;33.30;;
41817;SDS011;27493;51.730;5.294;2022-07-01T03:55:35;59.57;;;35.80;;
41817;SDS011;27493;51.730;5.294;2022-07-01T03:58:00;58.57;;;35.50;;
41817;SDS011;27493;51.730;5.294;2022-07-01T04:00:26;59.63;;;34.77;;
41817;SDS011;27493;51.730;5.294;2022-07-01T04:02:51;56.00;;;33.90;;
41817;SDS011;27493;51.730;5.294;2022-07-01T04:05:16;63.20;;;34.83;;
41817;SDS011;27493;51.730;5.294;2022-07-01T04:07:42;58.53;;;32.40;;
41817;SDS011;27493;51.730;5.294;2022-07-01T04:10:07;56.30;;;33.77;;
41817;SDS011;27493;51.730;5.294;2022-07-01T04:12:32;55.70;;;33.17;;
41817;SDS011;27493;51.730;5.294;2022-07-01T04:14:57;55.30;;;33.20;;
41817;SDS011;27493;51.730;5.294;2022-07-01T04:17:23;63.93;;;33.60;;
41817;SDS011;27493;51.730;5.294;2022-07-01T04:19:48;55.97;;;33.57;;
41817;SDS011;27493;51.730;5.294;2022-07-01T04:22:13;53.97;;;33.00;;
41817;SDS011;27493;51.730;5.294;2022-07-01T04:24:57;56.70;;;33.60;;
41817;SDS011;27493;51.730;5.294;2022-07-01T04:27:29;57.13;;;33.43;;
41817;SDS011;27493;51.730;5.294;2022-07-01T04:29:54;58.17;;;34.43;;
41817;SDS011;27493;51.730;5.294;2022-07-01T04:32:19;53.63;;;33.60;;
41817;SDS011;27493;51.730;5.294;2022-07-01T04:34:45;56.73;;;34.33;;
41817;SDS011;27493;51.730;5.294;2022-07-01T04:37:10;56.93;;;33.57;;
41817;SDS011;27493;51.730;5.294;2022-07-01T04:39:35;61.03;;;33.80;;
41817;SDS011;27493;51.730;5.294;2022-07-01T04:42:00;56.30;;;34.60;;
41817;SDS011;27493;51.730;5.294;2022-07-01T04:44:35;58.17;;;33.80;;
41817;SDS011;27493;51.730;5.294;2022-07-01T04:47:01;58.23;;;33.87;;
41817;SDS011;27493;51.730;5.294;2022-07-01T04:49:27;60.90;;;34.43;;
41817;SDS011;27493;51.730;5.294;2022-07-01T04:51:52;58.47;;;35.47;;
41817;SDS011;27493;51.730;5.294;2022-07-01T04:54:23;61.80;;;34.63;;
41817;SDS011;27493;51.730;5.294;2022-07-01T04:56:49;56.67;;;32.53;;
41817;SDS011;27493;51.730;5.294;2022-07-01T04:59:15;59.07;;;32.97;;
41817;SDS011;27493;51.730;5.294;2022-07-01T05:01:44;65.47;;;35.60;;
41817;SDS011;27493;51.730;5.294;2022-07-01T05:04:10;62.07;;;35.33;;
41817;SDS011;27493;51.730;5.294;2022-07-01T05:06:36;62.03;;;34.40;;
41817;SDS011;27493;51.730;5.294;2022-07-01T05:09:01;59.10;;;34.23;;
41817;SDS011;27493;51.730;5.294;2022-07-01T05:11:26;55.13;;;32.90;;
41817;SDS011;27493;51.730;5.294;2022-07-01T05:13:51;58.00;;;34.00;;
41817;SDS011;27493;51.730;5.294;2022-07-01T05:16:17;58.87;;;33.10;;
41817;SDS011;27493;51.730;5.294;2022-07-01T05:18:42;63.03;;;34.23;;
41817;SDS011;27493;51.730;5.294;2022-07-01T05:21:26;58.60;;;33.57;;
41817;SDS011;27493;51.730;5.294;2022-07-01T05:24:10;56.47;;;33.43;;
41817;SDS011;27493;51.730;5.294;2022-07-01T05:26:36;54.53;;;32.33;;
41817;SDS011;27493;51.730;5.294;2022-07-01T05:29:01;56.70;;;32.20;;
41817;SDS011;27493;51.730;5.294;2022-07-01T05:31:26;52.60;;;30.47;;
41817;SDS011;27493;51.730;5.294;2022-07-01T05:33:52;54.73;;;30.90;;
41817;SDS011;27493;51.730;5.294;2022-07-01T05:36:17;48.50;;;29.23;;
41817;SDS011;27493;51.730;5.294;2022-07-01T05:38:43;55.80;;;30.77;;
41817;SDS011;27493;51.730;5.294;2022-07-01T05:41:08;56.17;;;31.43;;
41817;SDS011;27493;51.730;5.294;2022-07-01T05:43:33;48.97;;;29.93;;
41817;SDS011;27493;51.730;5.294;2022-07-01T05:45:59;50.33;;;30.17;;
41817;SDS011;27493;51.730;5.294;2022-07-01T05:48:24;51.57;;;30.57;;
41817;SDS011;27493;51.730;5.294;2022-07-01T05:50:50;50.77;;;30.00;;
41817;SDS011;27493;51.730;5.294;2022-07-01T05:53:15;49.00;;;28.87;;
41817;SDS011;27493;51.730;5.294;2022-07-01T05:55:40;49.97;;;30.13;;
41817;SDS011;27493;51.730;5.294;2022-07-01T05:58:06;41.37;;;26.30;;
41817;SDS011;27493;51.730;5.294;2022-07-01T06:00:33;45.47;;;26.37;;
41817;SDS011;27493;51.730;5.294;2022-07-01T06:02:58;42.60;;;25.57;;
41817;SDS011;27493;51.730;5.294;2022-07-01T06:05:23;35.63;;;23.53;;
41817;SDS011;27493;51.730;5.294;2022-07-01T06:07:51;39.33;;;22.73;;
41817;SDS011;27493;51.730;5.294;2022-07-01T06:10:17;35.87;;;22.30;;
41817;SDS011;27493;51.730;5.294;2022-07-01T06:12:42;38.57;;;22.47;;
41817;SDS011;27493;51.730;5.294;2022-07-01T06:15:08;31.33;;;20.93;;
41817;SDS011;27493;51.730;5.294;2022-07-01T06:17:34;32.13;;;20.03;;
41817;SDS011;27493;51.730;5.294;2022-07-01T06:19:59;33.90;;;19.20;;
41817;SDS011;27493;51.730;5.294;2022-07-01T06:22:25;27.93;;;18.00;;
41817;SDS011;27493;51.730;5.294;2022-07-01T06:24:53;25.63;;;17.67;;
41817;SDS011;27493;51.730;5.294;2022-07-01T06:27:18;27.23;;;17.60;;
41817;SDS011;27493;51.730;5.294;2022-07-01T06:29:43;22.37;;;15.40;;
41817;SDS011;27493;51.730;5.294;2022-07-01T06:32:09;27.00;;;15.70;;
41817;SDS011;27493;51.730;5.294;2022-07-01T06:34:34;21.63;;;14.70;;
41817;SDS011;27493;51.730;5.294;2022-07-01T06:36:59;24.87;;;14.17;;
41817;SDS011;27493;51.730;5.294;2022-07-01T06:39:25;20.03;;;13.27;;
41817;SDS011;27493;51.730;5.294;2022-07-01T06:41:51;21.20;;;13.50;;
41817;SDS011;27493;51.730;5.294;2022-07-01T06:44:17;25.43;;;13.30;;
41817;SDS011;27493;51.730;5.294;2022-07-01T06:46:42;19.27;;;13.00;;
41817;SDS011;27493;51.730;5.294;2022-07-01T06:49:07;17.93;;;11.73;;
41817;SDS011;27493;51.730;5.294;2022-07-01T06:51:32;19.93;;;11.17;;
41817;SDS011;27493;51.730;5.294;2022-07-01T06:53:58;18.27;;;10.77;;
41817;SDS011;27493;51.730;5.294;2022-07-01T06:56:23;19.53;;;10.87;;
41817;SDS011;27493;51.730;5.294;2022-07-01T06:58:49;20.07;;;10.77;;
41817;SDS011;27493;51.730;5.294;2022-07-01T07:01:14;17.97;;;10.40;;
41817;SDS011;27493;51.730;5.294;2022-07-01T07:03:39;16.63;;;10.77;;
41817;SDS011;27493;51.730;5.294;2022-07-01T07:06:04;17.00;;;9.40;;
41817;SDS011;27493;51.730;5.294;2022-07-01T07:08:37;16.27;;;10.00;;
41817;SDS011;27493;51.730;5.294;2022-07-01T07:14:05;14.93;;;9.23;;
41817;SDS011;27493;51.730;5.294;2022-07-01T07:16:31;13.83;;;9.03;;
41817;SDS011;27493;51.730;5.294;2022-07-01T07:18:56;14.77;;;8.20;;
41817;SDS011;27493;51.730;5.294;2022-07-01T07:21:21;14.70;;;8.70;;
41817;SDS011;27493;51.730;5.294;2022-07-01T07:23:47;12.87;;;6.90;;
41817;SDS011;27493;51.730;5.294;2022-07-01T07:26:12;14.10;;;7.20;;
41817;SDS011;27493;51.730;5.294;2022-07-01T07:28:38;9.57;;;6.60;;
41817;SDS011;27493;51.730;5.294;2022-07-01T07:31:03;14.33;;;7.43;;
41817;SDS011;27493;51.730;5.294;2022-07-01T07:33:28;15.30;;;6.40;;
41817;SDS011;27493;51.730;5.294;2022-07-01T07:35:54;12.87;;;5.60;;
41817;SDS011;27493;51.730;5.294;2022-07-01T07:38:19;10.17;;;5.70;;
41817;SDS011;27493;51.730;5.294;2022-07-01T07:40:48;9.43;;;5.33;;
41817;SDS011;27493;51.730;5.294;2022-07-01T07:43:13;12.87;;;5.63;;
41817;SDS011;27493;51.730;5.294;2022-07-01T07:45:38;7.60;;;5.63;;
41817;SDS011;27493;51.730;5.294;2022-07-01T07:48:04;9.77;;;5.60;;
41817;SDS011;27493;51.730;5.294;2022-07-01T07:50:30;10.57;;;5.40;;
41817;SDS011;27493;51.730;5.294;2022-07-01T07:52:58;11.07;;;5.70;;
41817;SDS011;27493;51.730;5.294;2022-07-01T07:55:23;9.43;;;6.07;;
41817;SDS011;27493;51.730;5.294;2022-07-01T07:57:49;12.20;;;6.77;;
41817;SDS011;27493;51.730;5.294;2022-07-01T08:00:14;11.77;;;6.30;;
41817;SDS011;27493;51.730;5.294;2022-07-01T08:02:40;10.37;;;6.00;;
41817;SDS011;27493;51.730;5.294;2022-07-01T08:05:06;9.73;;;5.63;;
41817;SDS011;27493;51.730;5.294;2022-07-01T08:07:35;7.17;;;4.80;;
41817;SDS011;27493;51.730;5.294;2022-07-01T08:10:01;8.17;;;4.73;;
41817;SDS011;27493;51.730;5.294;2022-07-01T08:12:27;8.77;;;4.10;;
41817;SDS011;27493;51.730;5.294;2022-07-01T08:14:52;8.03;;;4.03;;
41817;SDS011;27493;51.730;5.294;2022-07-01T08:17:17;7.57;;;4.27;;
41817;SDS011;27493;51.730;5.294;2022-07-01T08:19:43;7.40;;;3.80;;
41817;SDS011;27493;51.730;5.294;2022-07-01T08:22:08;8.13;;;3.57;;
41817;SDS011;27493;51.730;5.294;2022-07-01T08:24:33;6.13;;;3.00;;
41817;SDS011;27493;51.730;5.294;2022-07-01T08:26:58;6.37;;;3.03;;
41817;SDS011;27493;51.730;5.294;2022-07-01T08:29:24;6.60;;;2.80;;
41817;SDS011;27493;51.730;5.294;2022-07-01T08:31:49;6.53;;;2.50;;
41817;SDS011;27493;51.730;5.294;2022-07-01T08:34:17;8.30;;;2.37;;
41817;SDS011;27493;51.730;5.294;2022-07-01T08:36:42;6.40;;;2.43;;
41817;SDS011;27493;51.730;5.294;2022-07-01T08:39:07;4.00;;;2.10;;
41817;SDS011;27493;51.730;5.294;2022-07-01T08:41:32;7.40;;;2.80;;
41817;SDS011;27493;51.730;5.294;2022-07-01T08:43:58;4.87;;;2.63;;
41817;SDS011;27493;51.730;5.294;2022-07-01T08:46:24;5.00;;;2.50;;
41817;SDS011;27493;51.730;5.294;2022-07-01T08:48:52;7.50;;;2.57;;
41817;SDS011;27493;51.730;5.294;2022-07-01T08:51:18;6.47;;;2.63;;
41817;SDS011;27493;51.730;5.294;2022-07-01T08:53:43;5.23;;;2.40;;
41817;SDS011;27493;51.730;5.294;2022-07-01T08:56:09;7.63;;;2.40;;
41817;SDS011;27493;51.730;5.294;2022-07-01T08:58:52;5.97;;;2.40;;
41817;SDS011;27493;51.730;5.294;2022-07-01T09:01:19;4.03;;;2.10;;
41817;SDS011;27493;51.730;5.294;2022-07-01T09:03:47;3.77;;;2.30;;
41817;SDS011;27493;51.730;5.294;2022-07-01T09:06:14;6.23;;;2.57;;
41817;SDS011;27493;51.730;5.294;2022-07-01T09:08:40;5.37;;;2.50;;
41817;SDS011;27493;51.730;5.294;2022-07-01T09:11:16;6.20;;;3.00;;
41817;SDS011;27493;51.730;5.294;2022-07-01T09:13:42;5.93;;;3.30;;
41817;SDS011;27493;51.730;5.294;2022-07-01T09:16:16;5.07;;;2.77;;
41817;SDS011;27493;51.730;5.294;2022-07-01T09:19:03;5.27;;;2.77;;
41817;SDS011;27493;51.730;5.294;2022-07-01T09:21:29;6.30;;;2.80;;
41817;SDS011;27493;51.730;5.294;2022-07-01T09:23:57;4.40;;;2.60;;
41817;SDS011;27493;51.730;5.294;2022-07-01T09:26:23;7.80;;;3.20;;
41817;SDS011;27493;51.730;5.294;2022-07-01T09:28:54;5.27;;;2.67;;
41817;SDS011;27493;51.730;5.294;2022-07-01T09:31:29;8.87;;;2.70;;
41817;SDS011;27493;51.730;5.294;2022-07-01T09:34:06;5.23;;;2.07;;
41817;SDS011;27493;51.730;5.294;2022-07-01T09:36:33;6.73;;;2.93;;
41817;SDS011;27493;51.730;5.294;2022-07-01T09:39:03;5.83;;;2.77;;
41817;SDS011;27493;51.730;5.294;2022-07-01T09:41:28;6.67;;;2.70;;
41817;SDS011;27493;51.730;5.294;2022-07-01T09:44:03;5.33;;;2.70;;
41817;SDS011;27493;51.730;5.294;2022-07-01T09:46:28;7.30;;;2.70;;
41817;SDS011;27493;51.730;5.294;2022-07-01T09:48:54;5.27;;;2.50;;
41817;SDS011;27493;51.730;5.294;2022-07-01T09:51:20;6.97;;;2.03;;
41817;SDS011;27493;51.730;5.294;2022-07-01T09:53:45;5.33;;;1.90;;
41817;SDS011;27493;51.730;5.294;2022-07-01T09:56:10;5.47;;;1.80;;
41817;SDS011;27493;51.730;5.294;2022-07-01T09:58:35;4.47;;;1.93;;
41817;SDS011;27493;51.730;5.294;2022-07-01T10:01:03;3.17;;;1.80;;
41817;SDS011;27493;51.730;5.294;2022-07-01T10:03:30;4.53;;;1.80;;
41817;SDS011;27493;51.730;5.294;2022-07-01T10:05:57;5.20;;;2.00;;
41817;SDS011;27493;51.730;5.294;2022-07-01T10:10:58;5.10;;;2.00;;
41817;SDS011;27493;51.730;5.294;2022-07-01T10:13:26;5.10;;;1.80;;
41817;SDS011;27493;51.730;5.294;2022-07-01T10:15:52;4.40;;;1.97;;
41817;SDS011;27493;51.730;5.294;2022-07-01T10:18:27;4.87;;;2.20;;
41817;SDS011;27493;51.730;5.294;2022-07-01T10:20:53;3.83;;;1.80;;
41817;SDS011;27493;51.730;5.294;2022-07-01T10:23:19;5.07;;;1.87;;
41817;SDS011;27493;51.730;5.294;2022-07-01T10:25:46;3.83;;;1.70;;
41817;SDS011;27493;51.730;5.294;2022-07-01T10:30:44;4.63;;;1.60;;
41817;SDS011;27493;51.730;5.294;2022-07-01T10:33:24;5.53;;;1.80;;
41817;SDS011;27493;51.730;5.294;2022-07-01T10:35:51;6.60;;;1.90;;
41817;SDS011;27493;51.730;5.294;2022-07-01T10:38:16;8.27;;;1.67;;
41817;SDS011;27493;51.730;5.294;2022-07-01T10:40:43;6.63;;;2.00;;
41817;SDS011;27493;51.730;5.294;2022-07-01T10:46:08;5.67;;;2.00;;
41817;SDS011;27493;51.730;5.294;2022-07-01T10:48:33;4.83;;;1.80;;
41817;SDS011;27493;51.730;5.294;2022-07-01T10:50:59;4.03;;;2.13;;
41817;SDS011;27493;51.730;5.294;2022-07-01T10:53:24;5.90;;;2.10;;
41817;SDS011;27493;51.730;5.294;2022-07-01T10:59:01;4.20;;;2.27;;
41817;SDS011;27493;51.730;5.294;2022-07-01T11:01:26;6.57;;;2.00;;
41817;SDS011;27493;51.730;5.294;2022-07-01T11:03:52;3.07;;;2.10;;
41817;SDS011;27493;51.730;5.294;2022-07-01T11:06:18;4.93;;;1.90;;
41817;SDS011;27493;51.730;5.294;2022-07-01T11:08:50;4.70;;;2.10;;
41817;SDS011;27493;51.730;5.294;2022-07-01T11:11:15;4.37;;;1.93;;
41817;SDS011;27493;51.730;5.294;2022-07-01T11:13:41;3.00;;;1.80;;
41817;SDS011;27493;51.730;5.294;2022-07-01T11:16:07;6.00;;;2.50;;
41817;SDS011;27493;51.730;5.294;2022-07-01T11:18:33;3.63;;;2.30;;
41817;SDS011;27493;51.730;5.294;2022-07-01T11:21:02;7.53;;;2.33;;
41817;SDS011;27493;51.730;5.294;2022-07-01T11:23:28;4.30;;;1.93;;
41817;SDS011;27493;51.730;5.294;2022-07-01T11:25:53;4.07;;;1.90;;
41817;SDS011;27493;51.730;5.294;2022-07-01T11:31:31;6.07;;;2.10;;
41817;SDS011;27493;51.730;5.294;2022-07-01T11:33:56;4.90;;;1.77;;
41817;SDS011;27493;51.730;5.294;2022-07-01T11:36:22;5.87;;;2.30;;
41817;SDS011;27493;51.730;5.294;2022-07-01T11:39:06;6.73;;;2.63;;
41817;SDS011;27493;51.730;5.294;2022-07-01T11:44:31;5.20;;;2.13;;
41817;SDS011;27493;51.730;5.294;2022-07-01T11:46:56;5.50;;;2.17;;
41817;SDS011;27493;51.730;5.294;2022-07-01T11:49:22;3.20;;;2.00;;
41817;SDS011;27493;51.730;5.294;2022-07-01T11:51:58;3.50;;;2.10;;
41817;SDS011;27493;51.730;5.294;2022-07-01T11:54:24;3.40;;;1.97;;
41817;SDS011;27493;51.730;5.294;2022-07-01T11:56:52;4.70;;;2.00;;
41817;SDS011;27493;51.730;5.294;2022-07-01T11:59:18;4.67;;;1.93;;
41817;SDS011;27493;51.730;5.294;2022-07-01T12:01:51;3.43;;;1.80;;
41817;SDS011;27493;51.730;5.294;2022-07-01T12:04:19;5.40;;;2.00;;
41817;SDS011;27493;51.730;5.294;2022-07-01T12:06:44;4.73;;;1.73;;
41817;SDS011;27493;51.730;5.294;2022-07-01T12:09:13;3.60;;;1.70;;
41817;SDS011;27493;51.730;5.294;2022-07-01T12:11:39;3.90;;;1.60;;
41817;SDS011;27493;51.730;5.294;2022-07-01T12:14:08;3.67;;;1.57;;
41817;SDS011;27493;51.730;5.294;2022-07-01T12:16:38;4.00;;;1.57;;
41817;SDS011;27493;51.730;5.294;2022-07-01T12:19:03;5.67;;;1.53;;
41817;SDS011;27493;51.730;5.294;2022-07-01T12:21:36;3.63;;;1.50;;
41817;SDS011;27493;51.730;5.294;2022-07-01T12:24:12;4.70;;;1.57;;
41817;SDS011;27493;51.730;5.294;2022-07-01T12:29:12;7.33;;;2.10;;
41817;SDS011;27493;51.730;5.294;2022-07-01T12:31:39;3.23;;;1.60;;
41817;SDS011;27493;51.730;5.294;2022-07-01T12:34:05;6.07;;;1.87;;
41817;SDS011;27493;51.730;5.294;2022-07-01T12:36:30;5.50;;;1.60;;
41817;SDS011;27493;51.730;5.294;2022-07-01T12:39:04;5.97;;;1.83;;
41817;SDS011;27493;51.730;5.294;2022-07-01T12:41:31;3.50;;;1.48;;
41817;SDS011;27493;51.730;5.294;2022-07-01T12:43:58;4.37;;;1.73;;
41817;SDS011;27493;51.730;5.294;2022-07-01T12:46:30;4.57;;;1.60;;
41817;SDS011;27493;51.730;5.294;2022-07-01T12:48:56;4.60;;;1.60;;
41817;SDS011;27493;51.730;5.294;2022-07-01T12:51:28;5.30;;;1.70;;
41817;SDS011;27493;51.730;5.294;2022-07-01T12:53:53;3.53;;;1.53;;
41817;SDS011;27493;51.730;5.294;2022-07-01T12:56:26;5.30;;;1.60;;
41817;SDS011;27493;51.730;5.294;2022-07-01T12:59:02;5.85;;;1.38;;
41817;SDS011;27493;51.730;5.294;2022-07-01T13:01:33;3.97;;;1.50;;
41817;SDS011;27493;51.730;5.294;2022-07-01T13:03:58;3.00;;;1.45;;
41817;SDS011;27493;51.730;5.294;2022-07-01T13:06:35;4.30;;;1.20;;
41817;SDS011;27493;51.730;5.294;2022-07-01T13:09:08;4.18;;;1.50;;
41817;SDS011;27493;51.730;5.294;2022-07-01T13:11:34;6.07;;;1.60;;
41817;SDS011;27493;51.730;5.294;2022-07-01T13:13:59;3.30;;;1.40;;
41817;SDS011;27493;51.730;5.294;2022-07-01T13:16:25;4.22;;;1.58;;
41817;SDS011;27493;51.730;5.294;2022-07-01T13:18:50;3.40;;;1.40;;
41817;SDS011;27493;51.730;5.294;2022-07-01T13:21:15;4.60;;;1.80;;
41817;SDS011;27493;51.730;5.294;2022-07-01T13:23:40;2.45;;;1.38;;
41817;SDS011;27493;51.730;5.294;2022-07-01T13:26:06;1.48;;;1.10;;
41817;SDS011;27493;51.730;5.294;2022-07-01T13:28:31;3.72;;;1.42;;
41817;SDS011;27493;51.730;5.294;2022-07-01T13:30:56;2.90;;;1.40;;
41817;SDS011;27493;51.730;5.294;2022-07-01T13:33:21;3.88;;;1.50;;
41817;SDS011;27493;51.730;5.294;2022-07-01T13:35:47;5.30;;;1.40;;
41817;SDS011;27493;51.730;5.294;2022-07-01T13:38:12;5.22;;;1.40;;
41817;SDS011;27493;51.730;5.294;2022-07-01T13:40:37;3.08;;;1.60;;
41817;SDS011;27493;51.730;5.294;2022-07-01T13:43:03;5.55;;;1.63;;
41817;SDS011;27493;51.730;5.294;2022-07-01T13:45:28;5.45;;;1.63;;
41817;SDS011;27493;51.730;5.294;2022-07-01T13:47:54;4.45;;;1.70;;
41817;SDS011;27493;51.730;5.294;2022-07-01T13:50:19;5.07;;;1.50;;
41817;SDS011;27493;51.730;5.294;2022-07-01T13:52:45;3.97;;;1.35;;
41817;SDS011;27493;51.730;5.294;2022-07-01T13:55:11;3.85;;;1.50;;
41817;SDS011;27493;51.730;5.294;2022-07-01T13:57:36;3.87;;;1.40;;
41817;SDS011;27493;51.730;5.294;2022-07-01T14:00:02;4.10;;;1.30;;
41817;SDS011;27493;51.730;5.294;2022-07-01T14:02:28;3.10;;;1.60;;
41817;SDS011;27493;51.730;5.294;2022-07-01T14:04:57;2.90;;;1.30;;
41817;SDS011;27493;51.730;5.294;2022-07-01T14:07:25;4.00;;;1.40;;
41817;SDS011;27493;51.730;5.294;2022-07-01T14:09:53;3.97;;;1.30;;
41817;SDS011;27493;51.730;5.294;2022-07-01T14:12:18;5.77;;;1.57;;
41817;SDS011;27493;51.730;5.294;2022-07-01T14:14:43;7.10;;;1.90;;
41817;SDS011;27493;51.730;5.294;2022-07-01T14:17:09;4.97;;;1.90;;
41817;SDS011;27493;51.730;5.294;2022-07-01T14:19:34;6.00;;;1.83;;
41817;SDS011;27493;51.730;5.294;2022-07-01T14:22:00;4.57;;;1.90;;
41817;SDS011;27493;51.730;5.294;2022-07-01T14:24:26;4.10;;;2.00;;
41817;SDS011;27493;51.730;5.294;2022-07-01T14:26:51;3.73;;;1.77;;
41817;SDS011;27493;51.730;5.294;2022-07-01T14:29:16;3.77;;;2.10;;
41817;SDS011;27493;51.730;5.294;2022-07-01T14:31:42;3.90;;;1.77;;
41817;SDS011;27493;51.730;5.294;2022-07-01T14:34:07;3.13;;;1.70;;
41817;SDS011;27493;51.730;5.294;2022-07-01T14:36:32;5.30;;;2.20;;
41817;SDS011;27493;51.730;5.294;2022-07-01T14:38:57;4.73;;;2.07;;
41817;SDS011;27493;51.730;5.294;2022-07-01T14:41:23;6.07;;;2.43;;
41817;SDS011;27493;51.730;5.294;2022-07-01T14:43:48;5.73;;;1.97;;
41817;SDS011;27493;51.730;5.294;2022-07-01T14:46:13;4.57;;;1.93;;
41817;SDS011;27493;51.730;5.294;2022-07-01T14:48:40;2.77;;;1.97;;
41817;SDS011;27493;51.730;5.294;2022-07-01T14:51:08;4.20;;;1.97;;
41817;SDS011;27493;51.730;5.294;2022-07-01T14:53:33;6.47;;;1.97;;